createdAt,value
2019-05-06T00:00:30.981Z,22.60
2019-05-06T00:01:30.997Z,19.60
2019-05-06T00:02:30.936Z,24.00
2019-05-06T00:03:30.939Z,20.90
2019-05-06T00:04:30.899Z,20.30
2019-05-06T00:05:30.891Z,23.30
2019-05-06T00:06:30.912Z,22.50
2019-05-06T00:07:30.899Z,21.40
2019-05-06T00:08:30.891Z,21.20
2019-05-06T00:09:30.865Z,21.30
2019-05-06T00:10:30.897Z,21.40
2019-05-06T00:11:30.833Z,19.00
2019-05-06T00:12:30.837Z,24.30
2019-05-06T00:13:30.842Z,20.00
2019-05-06T00:14:30.802Z,21.00
2019-05-06T00:15:30.771Z,21.70
2019-05-06T00:16:30.816Z,22.10
2019-05-06T00:17:30.758Z,22.50
2019-05-06T00:18:30.793Z,21.00
2019-05-06T00:19:30.743Z,22.50
2019-05-06T00:20:30.725Z,19.40
2019-05-06T00:21:30.723Z,24.70
2019-05-06T00:22:30.747Z,24.10
2019-05-06T00:23:30.711Z,21.60
2019-05-06T00:24:30.713Z,22.40
2019-05-06T00:25:30.705Z,19.50
2019-05-06T00:26:30.695Z,23.20
2019-05-06T00:27:30.693Z,23.10
2019-05-06T00:28:30.677Z,22.60
2019-05-06T00:29:30.706Z,25.90
2019-05-06T00:30:30.611Z,20.80
2019-05-06T00:31:30.609Z,22.10
2019-05-06T00:32:30.591Z,22.80
2019-05-06T00:33:31.114Z,25.90
2019-05-06T00:34:30.611Z,22.10
2019-05-06T00:35:30.564Z,25.20
2019-05-06T00:36:30.549Z,23.90
2019-05-06T00:37:30.624Z,22.90
2019-05-06T00:38:30.559Z,24.20
2019-05-06T00:39:30.516Z,20.90
2019-05-06T00:40:30.527Z,23.00
2019-05-06T00:41:30.518Z,23.30
2019-05-06T00:42:30.487Z,22.80
2019-05-06T00:43:30.577Z,23.40
2019-05-06T00:44:30.470Z,23.30
2019-05-06T00:45:30.450Z,21.80
2019-05-06T00:46:30.445Z,21.20
2019-05-06T00:47:30.447Z,26.50
2019-05-06T00:48:30.465Z,24.20
2019-05-06T00:49:30.547Z,22.70
2019-05-06T00:50:30.439Z,24.40
2019-05-06T00:51:30.393Z,24.90
2019-05-06T00:52:30.407Z,25.80
2019-05-06T00:53:30.389Z,24.30
2019-05-06T00:54:31.209Z,23.40
2019-05-06T00:55:30.380Z,27.70
2019-05-06T00:56:30.341Z,20.60
2019-05-06T00:57:30.338Z,25.30
2019-05-06T00:58:30.334Z,24.30
2019-05-06T00:59:35.655Z,22.60
2019-05-06T01:00:30.305Z,28.00
2019-05-06T01:01:30.312Z,25.20
2019-05-06T01:02:30.273Z,24.90
2019-05-06T01:03:30.331Z,24.00
2019-05-06T01:04:30.295Z,22.70
2019-05-06T01:05:30.248Z,24.40
2019-05-06T01:06:30.238Z,24.30
2019-05-06T01:07:30.213Z,23.40
2019-05-06T01:08:30.270Z,24.70
2019-05-06T01:09:30.215Z,24.60
2019-05-06T01:10:30.193Z,24.00
2019-05-06T01:11:30.183Z,25.60
2019-05-06T01:12:30.195Z,25.90
2019-05-06T01:13:30.215Z,24.60
2019-05-06T01:14:30.183Z,25.90
2019-05-06T01:15:30.157Z,26.30
2019-05-06T01:16:30.120Z,26.90
2019-05-06T01:17:30.145Z,27.80
2019-05-06T01:18:30.109Z,26.40
2019-05-06T01:19:30.123Z,24.50
2019-05-06T01:20:30.097Z,26.90
2019-05-06T01:21:30.057Z,25.70
2019-05-06T01:22:30.151Z,26.20
2019-05-06T01:23:30.042Z,23.60
2019-05-06T01:24:30.637Z,27.00
2019-05-06T01:25:30.021Z,26.10
2019-05-06T01:26:30.039Z,24.80
2019-05-06T01:27:29.994Z,24.80
2019-05-06T01:28:29.985Z,25.90
2019-05-06T01:29:30.054Z,26.90
2019-05-06T01:30:29.962Z,23.30
2019-05-06T01:31:40.594Z,26.20
2019-05-06T01:32:30.951Z,25.60
2019-05-06T01:33:30.039Z,25.40
2019-05-06T01:34:29.958Z,24.30
2019-05-06T01:35:29.980Z,25.60
2019-05-06T01:36:29.906Z,26.20
2019-05-06T01:37:29.894Z,24.90
2019-05-06T01:38:29.899Z,23.20
2019-05-06T01:39:29.985Z,22.40
2019-05-06T01:40:29.873Z,23.20
2019-05-06T01:41:29.878Z,25.50
2019-05-06T01:42:29.843Z,26.40
2019-05-06T01:43:29.826Z,25.10
2019-05-06T01:44:29.864Z,25.60
2019-05-06T01:45:29.864Z,25.30
2019-05-06T01:46:29.789Z,25.10
2019-05-06T01:47:29.805Z,24.80
2019-05-06T01:48:29.769Z,25.10
2019-05-06T01:49:29.833Z,27.10
2019-05-06T01:50:29.739Z,24.10
2019-05-06T01:51:29.845Z,24.20
2019-05-06T01:52:29.738Z,25.60
2019-05-06T01:53:29.712Z,25.00
2019-05-06T01:54:29.733Z,25.10
2019-05-06T01:55:29.691Z,24.60
2019-05-06T01:56:29.753Z,24.00
2019-05-06T01:57:29.669Z,25.80
2019-05-06T01:58:29.667Z,27.80
2019-05-06T01:59:29.691Z,27.50
2019-05-06T02:00:29.641Z,24.20
2019-05-06T02:01:29.673Z,27.90
2019-05-06T02:02:29.630Z,26.00
2019-05-06T02:03:29.661Z,24.90
2019-05-06T02:04:29.688Z,28.60
2019-05-06T02:05:29.619Z,25.90
2019-05-06T02:06:29.585Z,29.20
2019-05-06T02:07:29.565Z,27.50
2019-05-06T02:08:29.561Z,25.40
2019-05-06T02:09:29.595Z,26.00
2019-05-06T02:10:29.548Z,25.00
2019-05-06T02:11:29.543Z,25.60
2019-05-06T02:12:29.569Z,24.20
2019-05-06T02:13:29.493Z,24.20
2019-05-06T02:14:29.511Z,24.80
2019-05-06T02:15:29.507Z,25.20
2019-05-06T02:16:29.467Z,24.30
2019-05-06T02:17:29.455Z,24.40
2019-05-06T02:18:29.455Z,26.90
2019-05-06T02:19:29.505Z,23.10
2019-05-06T02:20:29.475Z,26.00
2019-05-06T02:21:29.399Z,22.70
2019-05-06T02:22:29.407Z,25.40
2019-05-06T02:23:29.464Z,25.90
2019-05-06T02:24:29.412Z,27.00
2019-05-06T02:25:29.386Z,26.20
2019-05-06T02:26:29.377Z,26.30
2019-05-06T02:27:29.346Z,24.80
2019-05-06T02:28:29.335Z,24.00
2019-05-06T02:29:29.353Z,29.40
2019-05-06T02:30:29.351Z,26.90
2019-05-06T02:31:29.315Z,27.70
2019-05-06T02:32:31.580Z,24.40
2019-05-06T02:33:29.287Z,25.00
2019-05-06T02:34:29.294Z,25.40
2019-05-06T02:35:29.275Z,22.50
2019-05-06T02:36:29.251Z,27.10
2019-05-06T02:37:29.259Z,23.50
2019-05-06T02:38:39.760Z,26.10
2019-05-06T02:39:33.893Z,25.20
2019-05-06T02:40:29.230Z,24.40
2019-05-06T02:41:29.191Z,29.10
2019-05-06T02:42:29.201Z,27.70
2019-05-06T02:43:29.180Z,25.30
2019-05-06T02:44:33.389Z,25.90
2019-05-06T02:45:29.171Z,28.40
2019-05-06T02:46:29.131Z,27.30
2019-05-06T02:47:29.149Z,26.80
2019-05-06T02:48:29.134Z,24.20
2019-05-06T02:49:29.185Z,27.30
2019-05-06T02:50:29.098Z,24.80
2019-05-06T02:51:29.093Z,27.50
2019-05-06T02:52:29.083Z,28.40
2019-05-06T02:53:29.122Z,27.50
2019-05-06T02:54:29.103Z,26.50
2019-05-06T02:55:32.449Z,27.50
2019-05-06T02:56:33.149Z,29.10
2019-05-06T02:57:29.023Z,25.20
2019-05-06T02:58:29.032Z,25.50
2019-05-06T02:59:29.039Z,28.30
2019-05-06T03:00:29.024Z,24.70
2019-05-06T03:01:28.974Z,25.30
2019-05-06T03:02:42.180Z,29.00
2019-05-06T03:03:29.994Z,26.50
2019-05-06T03:04:28.953Z,27.60
2019-05-06T03:05:28.972Z,28.10
2019-05-06T03:06:28.943Z,28.10
2019-05-06T03:07:28.918Z,26.90
2019-05-06T03:08:28.962Z,27.90
2019-05-06T03:09:28.968Z,28.60
2019-05-06T03:10:28.919Z,30.60
2019-05-06T03:11:28.878Z,30.20
2019-05-06T03:12:28.854Z,26.70
2019-05-06T03:13:28.864Z,27.10
2019-05-06T03:14:28.864Z,28.10
2019-05-06T03:15:28.868Z,25.90
2019-05-06T03:16:28.830Z,26.90
2019-05-06T03:17:28.847Z,23.10
2019-05-06T03:18:28.864Z,27.30
2019-05-06T03:19:28.797Z,24.90
2019-05-06T03:20:28.792Z,28.70
2019-05-06T03:21:28.784Z,25.40
2019-05-06T03:22:28.822Z,26.80
2019-05-06T03:23:28.745Z,26.70
2019-05-06T03:24:28.728Z,24.60
2019-05-06T03:25:28.747Z,27.60
2019-05-06T03:26:28.712Z,26.40
2019-05-06T03:27:28.739Z,26.20
2019-05-06T03:28:28.700Z,27.20
2019-05-06T03:29:28.679Z,26.30
2019-05-06T03:30:28.697Z,25.60
2019-05-06T03:31:28.677Z,24.40
2019-05-06T03:32:31.054Z,26.40
2019-05-06T03:33:46.813Z,25.80
2019-05-06T03:34:52.482Z,26.10
2019-05-06T03:35:44.054Z,24.80
2019-05-06T03:36:34.686Z,27.40
2019-05-06T03:37:29.629Z,26.70
2019-05-06T03:38:28.582Z,23.80
2019-05-06T03:39:28.566Z,25.70
2019-05-06T03:40:28.576Z,26.80
2019-05-06T03:41:28.537Z,23.80
2019-05-06T03:42:28.593Z,27.40
2019-05-06T03:43:28.528Z,28.10
2019-05-06T03:44:28.540Z,29.50
2019-05-06T03:45:28.527Z,26.80
2019-05-06T03:46:28.488Z,27.40
2019-05-06T03:47:28.474Z,27.90
2019-05-06T03:48:28.492Z,27.20
2019-05-06T03:49:28.500Z,26.70
2019-05-06T03:50:28.503Z,27.10
2019-05-06T03:51:28.442Z,28.50
2019-05-06T03:52:28.435Z,28.70
2019-05-06T03:53:28.406Z,28.00
2019-05-06T03:54:28.471Z,29.50
2019-05-06T03:55:28.436Z,30.20
2019-05-06T03:56:28.385Z,28.50
2019-05-06T03:57:28.492Z,31.10
2019-05-06T03:58:28.361Z,28.20
2019-05-06T03:59:28.354Z,29.30
2019-05-06T04:00:28.388Z,30.70
2019-05-06T04:01:28.322Z,28.80
2019-05-06T04:02:28.312Z,30.90
2019-05-06T04:03:42.636Z,30.60
2019-05-06T04:04:33.128Z,32.60
2019-05-06T04:05:28.316Z,34.90
2019-05-06T04:06:28.282Z,30.10
2019-05-06T04:07:28.263Z,30.80
2019-05-06T04:08:28.290Z,34.80
2019-05-06T04:09:28.431Z,31.90
2019-05-06T04:10:28.276Z,35.90
2019-05-06T04:11:28.226Z,36.00
2019-05-06T04:12:28.210Z,36.20
2019-05-06T04:13:28.181Z,35.80
2019-05-06T04:14:28.179Z,34.10
2019-05-06T04:15:29.217Z,34.00
2019-05-06T04:16:28.164Z,34.90
2019-05-06T04:17:28.168Z,34.90
2019-05-06T04:18:28.168Z,37.30
2019-05-06T04:19:28.159Z,38.60
2019-05-06T04:20:28.677Z,37.50
2019-05-06T04:21:28.105Z,38.80
2019-05-06T04:22:28.092Z,34.80
2019-05-06T04:23:28.164Z,36.90
2019-05-06T04:24:28.076Z,34.70
2019-05-06T04:25:28.098Z,35.60
2019-05-06T04:26:28.063Z,32.30
2019-05-06T04:27:28.054Z,30.70
2019-05-06T04:28:28.037Z,33.20
2019-05-06T04:29:28.086Z,31.50
2019-05-06T04:30:28.040Z,33.40
2019-05-06T04:31:28.003Z,32.50
2019-05-06T04:32:27.976Z,34.60
2019-05-06T04:33:28.005Z,33.30
2019-05-06T04:34:27.983Z,31.70
2019-05-06T04:35:27.978Z,34.20
2019-05-06T04:36:27.940Z,33.50
2019-05-06T04:37:27.930Z,34.40
2019-05-06T04:38:27.941Z,34.30
2019-05-06T04:39:27.917Z,33.10
2019-05-06T04:40:29.685Z,34.00
2019-05-06T04:41:27.900Z,33.50
2019-05-06T04:42:27.905Z,33.50
2019-05-06T04:43:27.872Z,34.60
2019-05-06T04:44:27.854Z,33.00
2019-05-06T04:45:28.671Z,35.10
2019-05-06T04:46:27.911Z,34.40
2019-05-06T04:47:27.840Z,35.20
2019-05-06T04:48:27.817Z,33.50
2019-05-06T04:49:27.815Z,32.40
2019-05-06T04:50:27.872Z,34.40
2019-05-06T04:51:27.870Z,32.50
2019-05-06T04:52:27.795Z,31.50
2019-05-06T04:53:27.793Z,34.60
2019-05-06T04:54:27.751Z,31.70
2019-05-06T04:55:33.609Z,30.60
2019-05-06T04:56:27.725Z,35.00
2019-05-06T04:57:27.710Z,35.00
2019-05-06T04:58:27.740Z,33.90
2019-05-06T04:59:27.721Z,31.60
2019-05-06T05:00:27.691Z,33.60
2019-05-06T05:01:27.676Z,32.40
2019-05-06T05:02:27.719Z,34.20
2019-05-06T05:03:27.639Z,34.00
2019-05-06T05:04:32.062Z,34.10
2019-05-06T05:05:28.653Z,31.00
2019-05-06T05:06:27.639Z,32.40
2019-05-06T05:07:27.665Z,31.40
2019-05-06T05:08:27.588Z,31.40
2019-05-06T05:09:27.571Z,31.00
2019-05-06T05:10:27.677Z,32.90
2019-05-06T05:11:27.587Z,32.10
2019-05-06T05:12:27.544Z,31.30
2019-05-06T05:13:27.567Z,31.80
2019-05-06T05:14:27.528Z,33.40
2019-05-06T05:15:27.687Z,31.00
2019-05-06T05:16:27.495Z,32.00
2019-05-06T05:17:27.514Z,31.50
2019-05-06T05:18:27.670Z,31.90
2019-05-06T05:19:27.492Z,30.30
2019-05-06T05:20:36.980Z,30.80
2019-05-06T05:21:28.685Z,31.90
2019-05-06T05:22:27.440Z,32.50
2019-05-06T05:23:27.459Z,30.20
2019-05-06T05:24:27.415Z,31.60
2019-05-06T05:25:27.419Z,30.40
2019-05-06T05:26:32.753Z,30.70
2019-05-06T05:27:27.403Z,31.40
2019-05-06T05:28:27.431Z,30.40
2019-05-06T05:29:27.363Z,29.70
2019-05-06T05:30:27.377Z,30.90
2019-05-06T05:31:27.359Z,33.10
2019-05-06T05:32:27.321Z,29.20
2019-05-06T05:33:27.315Z,28.70
2019-05-06T05:34:38.049Z,30.00
2019-05-06T05:35:28.307Z,29.40
2019-05-06T05:36:27.319Z,29.50
2019-05-06T05:37:27.302Z,32.00
2019-05-06T05:38:27.293Z,27.70
2019-05-06T05:39:27.251Z,28.40
2019-05-06T05:40:27.237Z,27.10
2019-05-06T05:41:27.271Z,29.20
2019-05-06T05:42:27.233Z,29.10
2019-05-06T05:43:27.364Z,28.80
2019-05-06T05:44:27.185Z,24.60
2019-05-06T05:45:27.189Z,29.60
